Time;durP1;ratioP1;P1;durP2;ratioP2;P2;SDS_P1;SDS_P2;PMS_P1;PMS_P2;Temp;Humidity;BMP_temperature;BMP_pressure;BME280_temperature;BME280_humidity;BME280_pressure;Samples;Min_cycle;Max_cycle;Signal;HPM_P1;HPM_P2
2022/12/19 00:01:25;;;;;;;36.40;11.90;;;;;;;-2.90;100.00;97324.88;5066598;28;20203;-72
2022/12/19 00:03:54;;;;;;;27.33;10.67;;;;;;;-2.97;100.00;97316.56;5067629;28;20606;-71
2022/12/19 00:06:21;;;;;;;26.87;11.13;;;;;;;-2.96;100.00;97317.41;5064026;28;20286;-72
2022/12/19 00:08:51;;;;;;;34.93;10.90;;;;;;;-2.90;100.00;97314.56;5065987;28;20231;-72
2022/12/19 00:11:19;;;;;;;37.00;11.97;;;;;;;-3.01;100.00;97306.47;5060276;28;20832;-72
2022/12/19 00:13:46;;;;;;;26.30;10.37;;;;;;;-3.04;100.00;97306.63;5068408;28;20208;-72
2022/12/19 00:16:15;;;;;;;41.80;13.47;;;;;;;-3.05;100.00;97312.69;5067158;28;20203;-72
2022/12/19 00:18:43;;;;;;;38.20;10.73;;;;;;;-3.02;100.00;97315.09;5062674;28;20231;-72
2022/12/19 00:21:12;;;;;;;32.13;10.13;;;;;;;-2.93;100.00;97312.97;5065065;28;20218;-72
2022/12/19 00:23:39;;;;;;;37.37;11.53;;;;;;;-2.89;100.00;97316.22;5066854;28;20215;-72
2022/12/19 00:26:09;;;;;;;28.87;10.00;;;;;;;-2.88;100.00;97315.31;5068295;28;20238;-72
2022/12/19 00:28:36;;;;;;;33.23;12.57;;;;;;;-2.90;100.00;97314.56;5068358;28;20233;-72
2022/12/19 00:31:04;;;;;;;41.50;10.47;;;;;;;-2.76;100.00;97307.84;5068268;28;20212;-72
2022/12/19 00:33:30;;;;;;;31.07;9.47;;;;;;;-2.82;100.00;97302.97;5067394;28;21014;-72
2022/12/19 00:35:58;;;;;;;27.30;10.27;;;;;;;-2.77;100.00;97310.50;5065461;28;20211;-72
2022/12/19 00:38:25;;;;;;;36.57;10.67;;;;;;;-2.95;100.00;97308.78;5071410;28;20245;-72
2022/12/19 00:40:51;;;;;;;39.17;12.67;;;;;;;-2.85;100.00;97312.59;5068558;28;20218;-72
2022/12/19 00:43:20;;;;;;;26.40;10.90;;;;;;;-2.74;100.00;97305.19;5065736;28;20210;-72
2022/12/19 00:45:46;;;;;;;31.07;11.73;;;;;;;-2.74;100.00;97307.78;5067769;28;20222;-72
2022/12/19 00:48:15;;;;;;;29.93;10.37;;;;;;;-2.65;100.00;97317.66;5070131;28;20588;-72
2022/12/19 00:50:42;;;;;;;38.77;11.67;;;;;;;-2.73;100.00;97330.09;5071796;28;20212;-72
2022/12/19 00:53:08;;;;;;;43.27;12.63;;;;;;;-2.71;100.00;97323.09;5072097;28;20219;-72
2022/12/19 00:55:38;;;;;;;36.07;10.30;;;;;;;-2.65;100.00;97322.81;5070937;28;20202;-72
2022/12/19 00:58:04;;;;;;;35.07;10.83;;;;;;;-2.83;100.00;97323.69;5068262;28;20698;-72
2022/12/19 01:00:32;;;;;;;33.07;10.70;;;;;;;-2.76;100.00;97330.22;5071392;28;20297;-72
2022/12/19 01:02:59;;;;;;;27.70;9.57;;;;;;;-3.11;100.00;97328.41;5068185;28;20211;-72
2022/12/19 01:05:25;;;;;;;30.97;10.23;;;;;;;-3.11;100.00;97331.00;5070141;28;20661;-72
2022/12/19 01:07:52;;;;;;;30.87;10.93;;;;;;;-3.06;100.00;97317.91;5071115;28;20257;-72
2022/12/19 01:10:18;;;;;;;25.87;10.20;;;;;;;-3.05;100.00;97316.97;5065549;28;20208;-72
2022/12/19 01:12:47;;;;;;;31.40;10.43;;;;;;;-3.03;100.00;97324.59;5068558;28;20206;-72
2022/12/19 01:15:15;;;;;;;25.77;7.50;;;;;;;-2.86;100.00;97316.09;5070689;28;20210;-72
2022/12/19 01:17:43;;;;;;;37.63;11.50;;;;;;;-2.81;100.00;97324.47;5079286;28;20259;-72
2022/12/19 01:20:11;;;;;;;23.50;10.37;;;;;;;-2.87;100.00;97322.97;5074622;28;20204;-72
2022/12/19 01:22:37;;;;;;;30.10;9.70;;;;;;;-2.96;100.00;97320.00;5066554;28;20207;-72
2022/12/19 01:25:05;;;;;;;33.13;9.00;;;;;;;-2.91;100.00;97321.44;5067698;28;20214;-72
2022/12/19 01:27:31;;;;;;;32.60;10.37;;;;;;;-3.00;100.00;97323.63;5069230;28;20226;-72
2022/12/19 01:29:58;;;;;;;35.07;10.50;;;;;;;-3.05;100.00;97322.13;5069447;28;20241;-72
2022/12/19 01:32:24;;;;;;;22.00;8.83;;;;;;;-3.10;100.00;97318.97;5070228;28;20579;-72
2022/12/19 01:34:52;;;;;;;29.90;10.00;;;;;;;-3.02;100.00;97302.22;5069459;28;20213;-72
2022/12/19 01:37:19;;;;;;;24.00;9.20;;;;;;;-3.11;100.00;97288.94;5068374;28;20228;-72
2022/12/19 01:39:46;;;;;;;35.17;12.00;;;;;;;-3.06;100.00;97290.38;5060866;28;20211;-72
2022/12/19 01:42:15;;;;;;;27.57;8.57;;;;;;;-2.92;100.00;97288.81;5069289;28;20206;-72
2022/12/19 01:45:26;;;;;;;22.20;9.33;;;;;;;-3.03;100.00;97279.09;5069451;28;20719;-72
2022/12/19 01:47:56;;;;;;;21.50;7.57;;;;;;;-3.12;100.00;97295.81;5006790;28;20236;-72
2022/12/19 01:50:29;;;;;;;34.33;11.60;;;;;;;-2.97;100.00;97287.38;5055456;28;20229;-71
2022/12/19 01:52:57;;;;;;;37.87;11.70;;;;;;;-3.03;100.00;97301.41;5065464;28;20559;-71
2022/12/19 01:55:24;;;;;;;36.17;11.30;;;;;;;-3.13;100.00;97298.47;5068609;28;20204;-71
2022/12/19 01:57:51;;;;;;;23.63;8.53;;;;;;;-3.05;100.00;97276.59;5068015;28;21226;-72
2022/12/19 02:00:18;;;;;;;32.03;9.83;;;;;;;-3.00;100.00;97275.47;5070097;28;20555;-72
2022/12/19 02:02:50;;;;;;;29.50;11.27;;;;;;;-2.90;100.00;97273.31;5062220;28;20293;-74
2022/12/19 02:05:16;;;;;;;28.27;10.47;;;;;;;-2.95;100.00;97285.56;5064902;28;20203;-74
2022/12/19 02:07:46;;;;;;;27.80;8.53;;;;;;;-2.88;100.00;97298.13;5068088;28;20255;-73
2022/12/19 02:10:12;;;;;;;33.20;10.07;;;;;;;-3.04;100.00;97316.09;5068380;28;20203;-73
2022/12/19 02:12:43;;;;;;;37.60;11.33;;;;;;;-2.97;100.00;97324.28;5066774;28;20211;-73
2022/12/19 02:15:11;;;;;;;23.63;7.57;;;;;;;-2.88;100.00;97316.16;5067927;28;20234;-73
2022/12/19 02:17:48;;;;;;;33.33;9.53;;;;;;;-2.82;100.00;97322.78;5067685;28;20235;-73
2022/12/19 02:20:34;;;;;;;35.40;11.23;;;;;;;-2.92;100.00;97306.06;5064889;28;20211;-73
2022/12/19 02:23:34;;;;;;;29.90;9.83;;;;;;;-2.89;100.00;97313.63;5064929;28;20200;-73
2022/12/19 02:26:20;;;;;;;24.60;8.00;;;;;;;-2.81;100.00;97294.34;5068626;28;20213;-73
2022/12/19 02:29:17;;;;;;;32.60;10.93;;;;;;;-2.83;100.00;97274.69;5067860;28;20233;-73
2022/12/19 02:31:50;;;;;;;25.90;9.17;;;;;;;-2.89;100.00;97250.03;5060884;28;20208;-73
2022/12/19 02:34:21;;;;;;;24.57;8.67;;;;;;;-3.00;100.00;97254.00;5067472;28;20217;-73
2022/12/19 02:36:52;;;;;;;24.67;9.67;;;;;;;-3.07;100.00;97255.19;5067471;28;20579;-72
2022/12/19 02:39:26;;;;;;;27.33;10.50;;;;;;;-3.13;100.00;97260.66;5066659;28;20219;-73
2022/12/19 02:41:56;;;;;;;25.23;8.87;;;;;;;-3.18;100.00;97264.31;5063516;28;20291;-73
2022/12/19 02:44:27;;;;;;;26.10;9.07;;;;;;;-3.00;100.00;97259.16;5062712;28;20214;-72
2022/12/19 02:46:58;;;;;;;35.97;10.00;;;;;;;-2.79;100.00;97265.88;5062184;28;20202;-73
2022/12/19 02:49:25;;;;;;;30.40;9.77;;;;;;;-2.78;100.00;97245.19;5064380;28;20700;-73
2022/12/19 02:51:51;;;;;;;30.93;10.03;;;;;;;-2.81;100.00;97231.63;5066162;28;20212;-73
2022/12/19 02:54:18;;;;;;;23.97;9.13;;;;;;;-2.77;100.00;97226.22;5066614;28;20211;-73
2022/12/19 02:56:52;;;;;;;24.87;7.57;;;;;;;-2.71;100.00;97254.31;5067924;28;20206;-73
2022/12/19 02:59:34;;;;;;;20.93;8.10;;;;;;;-2.95;100.00;97303.63;5067284;28;20607;-73
2022/12/19 03:02:08;;;;;;;29.80;9.57;;;;;;;-2.93;100.00;97314.69;5062768;28;20277;-72
2022/12/19 03:04:45;;;;;;;17.83;9.37;;;;;;;-2.86;100.00;97321.25;5067266;28;20563;-73
2022/12/19 03:07:21;;;;;;;22.43;8.47;;;;;;;-2.89;100.00;97317.06;5064746;28;20241;-73
2022/12/19 03:09:58;;;;;;;15.13;6.27;;;;;;;-3.05;100.00;97320.41;5068785;28;20209;-73
2022/12/19 03:12:30;;;;;;;21.10;7.13;;;;;;;-2.87;100.00;97302.34;5060876;28;20652;-72
2022/12/19 03:14:58;;;;;;;26.57;9.03;;;;;;;-2.93;100.00;97301.78;5067566;28;20294;-73
2022/12/19 03:17:27;;;;;;;29.03;9.53;;;;;;;-2.87;100.00;97293.78;5063681;28;20226;-73
2022/12/19 03:19:54;;;;;;;34.37;9.20;;;;;;;-3.01;100.00;97281.53;5065174;28;20677;-73
2022/12/19 03:22:20;;;;;;;23.37;9.90;;;;;;;-2.92;100.00;97290.59;5067267;28;20751;-73
2022/12/19 03:24:47;;;;;;;24.87;9.73;;;;;;;-2.86;100.00;97287.72;5065721;28;20215;-73
2022/12/19 03:27:20;;;;;;;35.20;8.77;;;;;;;-2.83;100.00;97285.81;5067556;28;20232;-73
2022/12/19 03:29:50;;;;;;;20.83;8.67;;;;;;;-2.96;100.00;97299.38;5068045;28;20207;-73
2022/12/19 03:32:18;;;;;;;27.07;8.47;;;;;;;-2.93;100.00;97294.06;5065529;28;20202;-73
2022/12/19 03:34:51;;;;;;;24.80;9.30;;;;;;;-2.80;100.00;97290.84;5059866;28;20213;-74
2022/12/19 03:37:22;;;;;;;22.40;8.07;;;;;;;-2.66;100.00;97285.03;5056521;28;20232;-74
2022/12/19 03:39:54;;;;;;;27.90;10.67;;;;;;;-2.63;100.00;97288.31;5056830;28;20198;-74
2022/12/19 03:45:11;;;;;;;27.60;9.93;;;;;;;-2.55;100.00;97290.53;5056278;28;20325;-74
2022/12/19 03:47:42;;;;;;;28.90;9.67;;;;;;;-2.58;100.00;97272.59;5056937;28;20225;-74
2022/12/19 03:50:10;;;;;;;22.23;9.10;;;;;;;-2.63;100.00;97278.00;5056427;28;20205;-73
2022/12/19 03:52:45;;;;;;;29.77;9.03;;;;;;;-2.55;100.00;97280.22;5056009;28;20216;-74
2022/12/19 03:55:16;;;;;;;23.43;9.00;;;;;;;-2.49;100.00;97285.09;5055764;28;20206;-74
2022/12/19 03:57:48;;;;;;;26.43;9.40;;;;;;;-2.52;100.00;97282.63;5056192;28;20233;-74
2022/12/19 04:00:18;;;;;;;21.20;9.40;;;;;;;-2.47;100.00;97301.31;5056073;28;20206;-74
2022/12/19 04:02:48;;;;;;;28.13;9.53;;;;;;;-2.59;100.00;97313.06;5056097;28;20219;-75
2022/12/19 04:05:20;;;;;;;32.60;9.80;;;;;;;-2.38;100.00;97317.19;5055231;28;20646;-74
2022/12/19 04:07:48;;;;;;;28.00;8.17;;;;;;;-2.41;100.00;97310.44;5055835;28;20707;-74
2022/12/19 04:10:18;;;;;;;37.50;11.40;;;;;;;-2.37;100.00;97291.31;5056648;28;20223;-73
2022/12/19 04:12:50;;;;;;;37.13;9.83;;;;;;;-2.40;100.00;97293.22;5058867;28;20239;-75
2022/12/19 04:15:17;;;;;;;38.07;10.87;;;;;;;-2.52;100.00;97285.22;5059150;28;20210;-74
2022/12/19 04:17:50;;;;;;;32.37;9.00;;;;;;;-2.46;100.00;97282.34;5060236;28;20224;-74
2022/12/19 04:20:21;;;;;;;32.93;11.77;;;;;;;-2.42;100.00;97290.72;5060019;28;20204;-74
2022/12/19 04:22:51;;;;;;;35.00;12.70;;;;;;;-2.34;100.00;97296.31;5059536;28;20210;-74
2022/12/19 04:25:22;;;;;;;29.47;10.30;;;;;;;-2.37;100.00;97287.88;5058993;28;20218;-74
2022/12/19 04:27:53;;;;;;;29.40;12.00;;;;;;;-2.42;100.00;97290.72;5059801;28;20234;-74
2022/12/19 04:30:20;;;;;;;26.93;10.10;;;;;;;-2.41;100.00;97296.69;5060103;28;20599;-74
2022/12/19 04:32:48;;;;;;;34.17;10.33;;;;;;;-2.49;100.00;97301.38;5059606;28;20208;-74
2022/12/19 04:35:14;;;;;;;38.00;11.77;;;;;;;-2.52;100.00;97305.84;5058866;28;20204;-75
2022/12/19 04:37:43;;;;;;;27.87;10.50;;;;;;;-2.35;100.00;97304.97;5059929;28;20230;-74
2022/12/19 04:40:11;;;;;;;31.37;11.13;;;;;;;-2.37;100.00;97296.47;5059028;28;20215;-75
2022/12/19 04:42:37;;;;;;;31.63;10.17;;;;;;;-2.34;100.00;97292.91;5058987;28;20690;-75
2022/12/19 04:45:05;;;;;;;35.10;10.73;;;;;;;-2.31;100.00;97279.84;5058327;28;20776;-74
2022/12/19 04:47:32;;;;;;;25.63;9.33;;;;;;;-2.28;100.00;97290.88;5058963;28;20238;-74
2022/12/19 04:49:59;;;;;;;27.57;11.03;;;;;;;-2.23;100.00;97306.13;5059707;28;20873;-73
2022/12/19 04:52:25;;;;;;;25.47;9.07;;;;;;;-2.22;100.00;97311.19;5059846;28;20844;-74
2022/12/19 04:54:53;;;;;;;35.13;10.53;;;;;;;-2.19;100.00;97308.50;5058620;28;20206;-74
2022/12/19 04:57:20;;;;;;;27.77;9.53;;;;;;;-2.15;100.00;97317.75;5058786;28;20598;-74
2022/12/19 04:59:46;;;;;;;26.23;10.13;;;;;;;-2.15;100.00;97311.72;5059161;28;20227;-74
2022/12/19 05:02:13;;;;;;;27.63;10.87;;;;;;;-2.17;100.00;97305.84;5059006;28;20211;-74
2022/12/19 05:04:39;;;;;;;28.57;9.83;;;;;;;-2.00;100.00;97311.81;5058489;28;20200;-74
2022/12/19 05:07:06;;;;;;;39.37;14.17;;;;;;;-1.94;100.00;97301.19;5058200;28;20226;-74
2022/12/19 05:09:32;;;;;;;35.90;11.50;;;;;;;-2.08;100.00;97301.03;5058791;28;20202;-73
2022/12/19 05:12:00;;;;;;;36.13;10.80;;;;;;;-2.11;100.00;97308.94;5059040;28;20206;-74
2022/12/19 05:14:27;;;;;;;31.80;10.20;;;;;;;-2.16;100.00;97302.34;5058574;28;20212;-74
2022/12/19 05:16:53;;;;;;;36.83;10.17;;;;;;;-2.20;100.00;97301.66;5059076;28;20214;-74
2022/12/19 05:19:20;;;;;;;30.97;12.63;;;;;;;-2.15;100.00;97291.94;5058532;28;20986;-74
2022/12/19 05:21:46;;;;;;;31.67;9.97;;;;;;;-2.11;100.00;97282.31;5059233;28;20218;-74
2022/12/19 05:24:13;;;;;;;27.87;9.40;;;;;;;-1.95;100.00;97286.59;5057880;28;20219;-74
2022/12/19 05:26:40;;;;;;;34.40;11.17;;;;;;;-1.98;100.00;97288.53;5058530;28;20581;-74
2022/12/19 05:29:08;;;;;;;35.97;10.67;;;;;;;-1.86;100.00;97291.31;5058523;28;20223;-74
2022/12/19 05:31:34;;;;;;;35.50;9.90;;;;;;;-1.97;100.00;97290.16;5058097;28;20207;-74
2022/12/19 05:34:01;;;;;;;35.00;11.50;;;;;;;-2.00;100.00;97296.31;5058048;28;20211;-75
2022/12/19 05:36:27;;;;;;;36.47;11.63;;;;;;;-2.01;100.00;97292.09;5058548;28;20208;-74
2022/12/19 05:38:54;;;;;;;37.87;9.67;;;;;;;-1.92;100.00;97296.78;5058383;28;20232;-74
2022/12/19 05:41:21;;;;;;;40.80;11.33;;;;;;;-1.87;100.00;97291.38;5058487;28;20274;-74
2022/12/19 05:43:50;;;;;;;27.67;9.13;;;;;;;-1.74;100.00;97301.88;5058093;28;21276;-74
2022/12/19 05:46:19;;;;;;;27.57;11.47;;;;;;;-1.67;100.00;97299.78;5057486;28;20690;-74
2022/12/19 05:48:46;;;;;;;36.77;10.90;;;;;;;-1.73;100.00;97294.97;5058344;28;21406;-74
2022/12/19 05:51:13;;;;;;;26.93;9.77;;;;;;;-1.70;100.00;97290.44;5057899;28;20826;-74
2022/12/19 05:53:40;;;;;;;38.70;11.67;;;;;;;-1.63;100.00;97278.91;5057336;28;20230;-74
2022/12/19 05:56:08;;;;;;;35.50;11.00;;;;;;;-1.66;100.00;97286.78;5058622;28;20206;-74
2022/12/19 05:58:35;;;;;;;34.27;10.47;;;;;;;-1.65;100.00;97272.16;5057796;28;20232;-74
2022/12/19 06:01:03;;;;;;;26.70;9.27;;;;;;;-1.74;100.00;97285.53;5057831;28;20210;-73
2022/12/19 06:03:31;;;;;;;39.73;9.93;;;;;;;-1.68;100.00;97264.53;5057845;28;20212;-74
2022/12/19 06:05:57;;;;;;;30.27;9.00;;;;;;;-1.85;100.00;97290.41;5057588;28;20210;-74
2022/12/19 06:08:24;;;;;;;33.00;11.50;;;;;;;-1.79;100.00;97278.00;5057614;28;20234;-74
2022/12/19 06:10:50;;;;;;;32.10;11.53;;;;;;;-1.72;100.00;97279.38;5058018;28;20219;-74
2022/12/19 06:13:17;;;;;;;33.73;11.40;;;;;;;-1.70;100.00;97285.28;5061388;28;20213;-74
2022/12/19 06:15:43;;;;;;;26.53;10.30;;;;;;;-1.67;100.00;97286.88;5058090;28;20208;-74
2022/12/19 06:18:10;;;;;;;41.00;11.30;;;;;;;-1.64;100.00;97299.66;5057759;28;20233;-74
2022/12/19 06:20:38;;;;;;;32.50;11.53;;;;;;;-1.56;100.00;97289.75;5057949;28;20224;-74
2022/12/19 06:23:04;;;;;;;35.67;12.10;;;;;;;-1.61;100.00;97276.25;5058157;28;20586;-74
2022/12/19 06:25:31;;;;;;;39.37;11.00;;;;;;;-1.57;100.00;97282.91;5056915;28;20218;-74
2022/12/19 06:27:57;;;;;;;37.53;11.93;;;;;;;-1.46;100.00;97284.03;5057155;28;20224;-74
2022/12/19 06:30:24;;;;;;;40.33;12.67;;;;;;;-1.43;100.00;97290.78;5057737;28;20577;-74
2022/12/19 06:32:50;;;;;;;36.33;10.77;;;;;;;-1.43;100.00;97277.88;5057292;28;20787;-74
2022/12/19 06:35:17;;;;;;;32.37;9.97;;;;;;;-1.62;100.00;97267.63;5056419;28;20215;-73
2022/12/19 06:37:45;;;;;;;40.07;11.33;;;;;;;-1.42;100.00;97269.22;5056538;28;20224;-73
2022/12/19 06:42:21;;;;;;;30.10;10.97;;;;;;;-1.34;100.00;97261.88;5056966;28;20228;-73
2022/12/19 06:42:58;;;;;;;26.97;9.83;;;;;;;-1.28;100.00;97261.56;5057387;28;20293;-73
2022/12/19 06:45:24;;;;;;;38.17;11.70;;;;;;;-1.30;100.00;97258.22;5056536;28;20689;-73
2022/12/19 06:47:51;;;;;;;38.17;11.13;;;;;;;-1.32;100.00;97260.88;5057028;28;20265;-73
2022/12/19 06:50:17;;;;;;;26.20;10.10;;;;;;;-1.21;100.00;97251.63;5057562;28;20211;-73
2022/12/19 06:52:45;;;;;;;28.40;11.97;;;;;;;-1.14;100.00;97247.78;5057277;28;20219;-73
2022/12/19 06:55:11;;;;;;;28.17;10.60;;;;;;;-1.19;100.00;97252.38;5056036;28;20204;-73
2022/12/19 06:57:44;;;;;;;37.33;12.60;;;;;;;-1.18;100.00;97254.06;5056946;28;20224;-73
2022/12/19 07:00:12;;;;;;;40.60;12.10;;;;;;;-1.06;100.00;97257.72;5056665;28;20278;-74
2022/12/19 07:02:40;;;;;;;26.10;8.37;;;;;;;-1.09;100.00;97263.91;5057008;28;20211;-73
2022/12/19 07:05:07;;;;;;;33.20;10.17;;;;;;;-0.99;100.00;97267.66;5055999;28;20200;-73
2022/12/19 07:07:34;;;;;;;32.77;11.57;;;;;;;-1.07;100.00;97269.84;5056478;28;20734;-73
2022/12/19 07:10:03;;;;;;;30.90;8.27;;;;;;;-0.90;100.00;97266.34;5056098;28;20207;-74
2022/12/19 07:12:30;;;;;;;31.63;9.80;;;;;;;-1.08;100.00;97263.00;5056761;28;20211;-74
2022/12/19 07:14:56;;;;;;;28.83;11.03;;;;;;;-1.09;100.00;97263.91;5055975;28;20200;-72
2022/12/19 07:17:24;;;;;;;30.80;10.67;;;;;;;-0.86;100.00;97263.50;5056714;28;20240;-73
2022/12/19 07:19:53;;;;;;;27.00;9.70;;;;;;;-0.86;100.00;97260.91;5054423;28;20660;-73
2022/12/19 07:22:20;;;;;;;33.97;11.50;;;;;;;-0.88;100.00;97262.75;5057304;28;20214;-73
2022/12/19 07:24:46;;;;;;;32.00;11.03;;;;;;;-0.80;100.00;97255.41;5060328;28;20208;-72
2022/12/19 07:27:14;;;;;;;32.57;9.73;;;;;;;-0.71;100.00;97249.72;5064599;28;20204;-72
2022/12/19 07:29:41;;;;;;;34.77;10.33;;;;;;;-0.87;100.00;97254.06;5064634;28;20978;-72
2022/12/19 07:32:07;;;;;;;37.73;11.90;;;;;;;-0.79;100.00;97244.16;5064973;28;20196;-72
2022/12/19 07:34:34;;;;;;;72.93;22.37;;;;;;;-0.82;100.00;97239.13;5063998;28;20208;-72
2022/12/19 07:37:00;;;;;;;49.47;13.20;;;;;;;-0.64;100.00;97245.03;5062884;28;20205;-74
2022/12/19 07:39:27;;;;;;;38.87;10.67;;;;;;;-0.59;100.00;97243.84;5056731;28;20228;-74
2022/12/19 07:41:53;;;;;;;38.37;13.90;;;;;;;-0.51;100.00;97252.00;5056208;28;20207;-73
2022/12/19 07:44:21;;;;;;;25.83;10.53;;;;;;;-0.57;100.00;97257.56;5055335;28;20205;-74
2022/12/19 07:46:47;;;;;;;36.77;12.00;;;;;;;-0.59;100.00;97262.81;5058188;28;20226;-73
2022/12/19 07:49:14;;;;;;;36.43;11.33;;;;;;;-0.41;100.00;97263.53;5059711;28;20216;-73
2022/12/19 07:51:40;;;;;;;31.63;10.50;;;;;;;-0.45;100.00;97254.28;5060589;28;20207;-73
2022/12/19 07:54:07;;;;;;;27.67;10.83;;;;;;;-0.42;100.00;97261.84;5060787;28;20204;-73
2022/12/19 07:56:33;;;;;;;43.90;13.77;;;;;;;-0.42;100.00;97261.84;5059701;28;20210;-73
2022/12/19 07:59:00;;;;;;;39.10;12.73;;;;;;;-0.33;100.00;97256.16;5059709;28;20228;-74
2022/12/19 08:01:28;;;;;;;38.73;12.80;;;;;;;-0.27;100.00;97251.47;5060943;28;20200;-73
2022/12/19 08:03:54;;;;;;;28.63;9.13;;;;;;;0.08;100.00;97253.69;5059603;28;20200;-73
2022/12/19 08:06:22;;;;;;;32.67;11.73;;;;;;;0.04;100.00;97254.78;5059926;28;20587;-73
2022/12/19 08:08:48;;;;;;;32.67;12.27;;;;;;;0.06;100.00;97258.16;5060281;28;20248;-73
2022/12/19 08:11:18;;;;;;;33.10;12.23;;;;;;;0.12;100.00;97252.59;5059189;28;20200;-73
2022/12/19 08:13:45;;;;;;;36.27;13.23;;;;;;;0.17;100.00;97247.97;5059357;28;20204;-73
2022/12/19 08:16:12;;;;;;;33.53;11.70;;;;;;;0.19;100.00;97248.72;5060113;28;20211;-73
2022/12/19 08:18:40;;;;;;;33.77;11.63;;;;;;;0.37;100.00;97255.41;5064712;28;20227;-73
2022/12/19 08:21:07;;;;;;;38.13;11.13;;;;;;;0.29;100.00;97249.00;5063527;28;20577;-73
2022/12/19 08:23:33;;;;;;;39.20;11.87;;;;;;;0.26;100.00;97246.59;5063745;28;20208;-73
2022/12/19 08:26:02;;;;;;;32.47;11.17;;;;;;;0.34;100.00;97250.38;5063607;28;20201;-74
2022/12/19 08:28:29;;;;;;;36.77;11.40;;;;;;;0.26;100.00;97256.97;5058925;28;20764;-73
2022/12/19 08:30:56;;;;;;;34.87;11.07;;;;;;;0.16;100.00;97267.03;5059321;28;20213;-74
2022/12/19 08:33:22;;;;;;;41.57;11.63;;;;;;;0.16;100.00;97255.84;5059711;28;20204;-73
2022/12/19 08:35:50;;;;;;;48.03;11.47;;;;;;;0.36;100.00;97258.91;5058442;28;20205;-74
2022/12/19 08:38:17;;;;;;;32.90;9.90;;;;;;;0.38;100.00;97256.22;5059596;28;20228;-74
2022/12/19 08:40:43;;;;;;;29.53;10.63;;;;;;;0.41;100.00;97267.25;5059864;28;20224;-73
2022/12/19 08:43:10;;;;;;;38.60;11.50;;;;;;;0.43;100.00;97267.16;5058648;28;20669;-73
2022/12/19 08:45:36;;;;;;;31.40;9.37;;;;;;;0.45;100.00;97262.75;5065551;28;20211;-72
2022/12/19 08:48:03;;;;;;;35.73;11.83;;;;;;;0.49;100.00;97261.63;5065707;28;20224;-72
2022/12/19 08:50:29;;;;;;;49.70;12.90;;;;;;;0.47;100.00;97259.13;5066773;28;20689;-72
2022/12/19 08:52:57;;;;;;;40.83;12.17;;;;;;;0.64;100.00;97264.13;5067906;28;20215;-72
2022/12/19 08:55:24;;;;;;;36.90;10.30;;;;;;;0.55;100.00;97259.50;5068878;28;20212;-72
2022/12/19 08:57:50;;;;;;;35.60;11.00;;;;;;;0.60;100.00;97262.66;5069137;28;20260;-73
2022/12/19 09:00:17;;;;;;;30.00;11.67;;;;;;;0.72;100.00;97256.72;5067829;28;20235;-72
2022/12/19 09:02:44;;;;;;;32.97;8.90;;;;;;;0.75;100.00;97261.69;5068880;28;20201;-73
2022/12/19 09:05:10;;;;;;;30.30;10.00;;;;;;;0.77;100.00;97262.44;5067792;28;20211;-73
2022/12/19 09:07:38;;;;;;;32.80;10.40;;;;;;;0.60;100.00;97257.47;5061381;28;20240;-72
2022/12/19 09:10:07;;;;;;;31.30;10.77;;;;;;;0.82;100.00;97252.63;5069884;28;20200;-72
2022/12/19 09:12:34;;;;;;;29.43;10.13;;;;;;;0.58;100.00;97254.13;5065132;28;20201;-72
2022/12/19 09:15:00;;;;;;;34.50;11.73;;;;;;;0.84;100.00;97258.53;5067670;28;20205;-72
2022/12/19 09:17:28;;;;;;;30.63;10.57;;;;;;;0.87;100.00;97258.38;5069145;28;20344;-73
2022/12/19 09:19:54;;;;;;;38.00;11.50;;;;;;;0.98;100.00;97259.38;5063596;28;20222;-72
2022/12/19 09:22:21;;;;;;;33.33;12.53;;;;;;;1.03;100.00;97264.28;5067159;28;20208;-72
2022/12/19 09:24:47;;;;;;;29.17;10.27;;;;;;;1.01;100.00;97260.97;5070004;28;20208;-73
2022/12/19 09:27:15;;;;;;;29.87;10.50;;;;;;;1.19;100.00;97262.41;5065300;28;20216;-72
2022/12/19 09:29:42;;;;;;;32.73;11.37;;;;;;;1.17;100.00;97256.47;5065406;28;20201;-73
2022/12/19 09:32:08;;;;;;;38.97;12.13;;;;;;;1.12;100.00;97248.13;5067821;28;20885;-73
2022/12/19 09:34:35;;;;;;;32.33;10.67;;;;;;;1.21;100.00;97246.63;5064659;28;20201;-73
2022/12/19 09:37:02;;;;;;;41.03;12.73;;;;;;;1.33;100.00;97239.84;5067747;28;20213;-72
2022/12/19 09:39:28;;;;;;;32.07;12.63;;;;;;;1.51;100.00;97233.47;5064967;28;20260;-73
2022/12/19 09:42:09;;;;;;;35.77;12.37;;;;;;;1.66;100.00;97238.50;5067332;28;20401;-73
2022/12/19 09:44:52;;;;;;;32.47;11.90;;;;;;;1.78;100.00;97224.69;5066860;28;20720;-72
2022/12/19 09:47:22;;;;;;;26.43;9.67;;;;;;;1.89;100.00;97232.66;5064930;28;20228;-72
2022/12/19 09:49:49;;;;;;;30.53;11.60;;;;;;;1.85;100.00;97234.59;5066241;28;20206;-73
2022/12/19 09:52:20;;;;;;;35.67;11.90;;;;;;;2.00;100.00;97227.59;5065592;28;20637;-72
2022/12/19 09:54:51;;;;;;;34.83;11.83;;;;;;;2.02;100.00;97225.69;5062352;28;20200;-72
2022/12/19 09:57:23;;;;;;;37.43;12.80;;;;;;;2.25;100.00;97222.41;5063454;28;20235;-72
2022/12/19 09:59:56;;;;;;;29.77;11.23;;;;;;;2.29;100.00;97234.25;5055040;28;20230;-72
2022/12/19 10:02:37;;;;;;;34.30;11.40;;;;;;;2.32;100.00;97224.50;5056869;28;20203;-72
2022/12/19 10:05:13;;;;;;;37.77;11.43;;;;;;;2.07;100.00;97227.03;5054655;28;20210;-72
2022/12/19 10:07:39;;;;;;;36.30;11.43;;;;;;;2.37;99.13;97225.00;5055440;28;20231;-72
2022/12/19 10:10:09;;;;;;;40.63;14.03;;;;;;;2.60;97.97;97214.69;5054733;28;20200;-71
2022/12/19 10:13:06;;;;;;;28.70;11.30;;;;;;;2.89;96.68;97208.31;5055467;28;20211;-73
2022/12/19 10:15:45;;;;;;;26.33;10.07;;;;;;;2.91;95.94;97211.63;5054527;28;20212;-73
2022/12/19 10:18:26;;;;;;;29.87;9.83;;;;;;;2.69;98.06;97216.66;5056439;28;20226;-74
2022/12/19 10:21:00;;;;;;;35.70;11.40;;;;;;;2.96;96.98;97212.13;5055910;28;20227;-73
2022/12/19 10:23:44;;;;;;;31.43;11.53;;;;;;;3.15;95.31;97196.88;5055879;28;20212;-73
2022/12/19 10:26:17;;;;;;;32.93;11.13;;;;;;;3.38;94.18;97188.25;5059333;28;20197;-73
2022/12/19 10:29:03;;;;;;;31.23;11.90;;;;;;;2.96;95.84;97185.28;5062003;28;20785;-72
2022/12/19 10:31:36;;;;;;;34.00;11.00;;;;;;;3.07;95.86;97173.16;5062611;28;20232;-73
2022/12/19 10:34:16;;;;;;;35.00;11.53;;;;;;;3.19;96.23;97167.06;5061001;28;20216;-73
2022/12/19 10:36:44;;;;;;;31.03;11.00;;;;;;;3.10;95.63;97160.75;5059790;28;20265;-73
2022/12/19 10:39:19;;;;;;;29.90;11.77;;;;;;;3.35;95.08;97146.81;5056574;28;20270;-73
2022/12/19 10:41:52;;;;;;;39.33;12.17;;;;;;;3.61;95.29;97143.94;5056829;28;20231;-73
2022/12/19 10:44:20;;;;;;;35.70;12.00;;;;;;;2.89;96.91;97158.84;5056142;28;20594;-73
2022/12/19 10:46:49;;;;;;;36.50;13.60;;;;;;;3.32;96.00;97162.63;5056871;28;20224;-74
2022/12/19 10:49:17;;;;;;;35.60;12.67;;;;;;;3.49;94.86;97157.03;5055821;28;20235;-72
2022/12/19 10:51:57;;;;;;;33.00;11.80;;;;;;;3.87;94.21;97161.94;5055744;28;20699;-73
2022/12/19 10:54:24;;;;;;;34.03;11.63;;;;;;;3.41;96.73;97160.22;5054821;28;20200;-72
2022/12/19 10:56:51;;;;;;;40.63;13.33;;;;;;;3.47;95.80;97151.13;5055699;28;20203;-72
2022/12/19 10:59:20;;;;;;;41.03;13.13;;;;;;;3.34;97.00;97145.16;5056398;28;20354;-72
2022/12/19 11:01:48;;;;;;;37.03;13.33;;;;;;;3.19;97.91;97157.47;5059647;28;20228;-72
2022/12/19 11:04:22;;;;;;;34.10;12.37;;;;;;;3.18;98.11;97149.78;5057084;28;20534;-72
2022/12/19 11:06:51;;;;;;;38.63;13.03;;;;;;;3.27;97.10;97154.31;5057916;28;20213;-71
2022/12/19 11:09:28;;;;;;;41.10;12.87;;;;;;;3.33;97.95;97146.06;5055364;28;20227;-72
2022/12/19 11:12:11;;;;;;;38.43;12.67;;;;;;;3.28;98.60;97137.75;5056392;28;20664;-71
2022/12/19 11:14:40;;;;;;;38.80;12.53;;;;;;;3.28;99.64;97135.97;5054516;28;20262;-72
2022/12/19 11:17:23;;;;;;;35.13;12.43;;;;;;;3.53;98.64;97143.69;5055776;28;20197;-71
2022/12/19 11:19:50;;;;;;;31.80;12.77;;;;;;;3.23;99.05;97153.75;5056308;28;20604;-72
2022/12/19 11:22:21;;;;;;;33.83;11.17;;;;;;;3.39;99.33;97158.66;5055702;28;21055;-72
2022/12/19 11:24:50;;;;;;;31.57;11.43;;;;;;;3.44;98.89;97156.56;5055278;28;20212;-72
2022/12/19 11:27:32;;;;;;;33.83;12.87;;;;;;;3.70;96.31;97146.72;5058005;28;20211;-72